Time;durP1;ratioP1;P1;durP2;ratioP2;P2;SDS_P1;SDS_P2;PMS_P1;PMS_P2;Temp;Humidity;BMP_temperature;BMP_pressure;BME280_temperature;BME280_humidity;BME280_pressure;Samples;Min_cycle;Max_cycle;Signal;HPM_P1;HPM_P2
2021/06/25 00:00:36;;;;;;;14.30;12.90;;;13.20;90.50;;;;;;5052904;28;20045;-68
2021/06/25 00:03:02;;;;;;;14.60;13.30;;;13.10;90.60;;;;;;5051803;28;20099;-69
2021/06/25 00:05:28;;;;;;;15.10;13.70;;;13.10;90.70;;;;;;5052684;28;20041;-68
2021/06/25 00:07:54;;;;;;;15.10;13.60;;;13.10;90.70;;;;;;5052623;28;20053;-68
2021/06/25 00:10:20;;;;;;;13.07;11.77;;;13.10;90.70;;;;;;5051452;28;20049;-68
2021/06/25 00:12:46;;;;;;;15.83;14.33;;;13.10;90.70;;;;;;5052292;28;20114;-68
2021/06/25 00:15:12;;;;;;;15.87;13.53;;;13.00;90.70;;;;;;5052297;28;20049;-68
2021/06/25 00:17:38;;;;;;;15.10;13.63;;;13.00;90.90;;;;;;5051714;28;20071;-68
2021/06/25 00:20:06;;;;;;;14.60;13.30;;;12.90;90.90;;;;;;5052164;28;20045;-68
2021/06/25 00:22:32;;;;;;;15.43;13.77;;;12.80;91.10;;;;;;5052282;28;20405;-68
2021/06/25 00:24:57;;;;;;;15.40;13.87;;;12.80;91.20;;;;;;5051355;28;20053;-68
2021/06/25 00:27:23;;;;;;;14.47;12.83;;;12.80;91.20;;;;;;5052062;28;20045;-68
2021/06/25 00:29:49;;;;;;;14.10;12.67;;;12.80;91.30;;;;;;5052250;28;20141;-68
2021/06/25 00:32:14;;;;;;;13.20;11.90;;;12.70;91.30;;;;;;5051325;28;20047;-69
2021/06/25 00:34:40;;;;;;;14.60;13.20;;;12.70;91.30;;;;;;5052240;28;20061;-69
2021/06/25 00:37:07;;;;;;;14.23;12.97;;;12.70;91.30;;;;;;5051912;28;20068;-70
2021/06/25 00:39:32;;;;;;;13.00;11.67;;;12.60;91.30;;;;;;5033416;28;20395;-69
2021/06/25 00:41:58;;;;;;;13.13;11.87;;;12.60;91.40;;;;;;5051407;28;20115;-68
2021/06/25 00:44:24;;;;;;;11.67;10.57;;;12.50;91.50;;;;;;5052156;28;20128;-68
2021/06/25 00:46:52;;;;;;;12.70;11.40;;;12.50;91.50;;;;;;5050688;28;20533;-69
2021/06/25 00:49:18;;;;;;;12.43;11.13;;;12.50;91.50;;;;;;5051459;28;20141;-68
2021/06/25 00:51:44;;;;;;;14.90;13.50;;;12.50;91.60;;;;;;5050901;28;20061;-69
2021/06/25 00:54:10;;;;;;;14.17;12.53;;;12.50;91.60;;;;;;5051150;28;20429;-69
2021/06/25 00:56:37;;;;;;;14.33;13.00;;;12.50;91.70;;;;;;5051065;28;20355;-68
2021/06/25 00:59:04;;;;;;;14.47;12.53;;;12.50;91.60;;;;;;5050337;28;20051;-68
2021/06/25 01:01:30;;;;;;;16.10;14.50;;;12.50;91.60;;;;;;5051418;28;20089;-68
2021/06/25 01:03:56;;;;;;;16.23;14.73;;;12.50;91.60;;;;;;5051479;28;20205;-69
2021/06/25 01:06:22;;;;;;;13.50;12.20;;;12.40;91.60;;;;;;5050146;28;20072;-68
2021/06/25 01:08:48;;;;;;;14.40;11.90;;;12.40;91.60;;;;;;5051090;28;20042;-68
2021/06/25 01:11:14;;;;;;;14.37;12.30;;;12.40;91.70;;;;;;5050596;28;20110;-68
2021/06/25 01:13:41;;;;;;;15.00;13.50;;;12.30;91.70;;;;;;5050620;28;20152;-69
2021/06/25 01:16:07;;;;;;;15.47;13.97;;;12.30;91.80;;;;;;5051038;28;20135;-68
2021/06/25 01:18:33;;;;;;;16.57;14.87;;;12.20;91.80;;;;;;5051109;28;20433;-69
2021/06/25 01:21:00;;;;;;;15.43;13.97;;;12.20;91.90;;;;;;5050193;28;20049;-69
2021/06/25 01:23:26;;;;;;;16.97;15.37;;;12.10;91.90;;;;;;5050971;28;20089;-68
2021/06/25 01:25:52;;;;;;;17.80;14.97;;;12.10;92.00;;;;;;5050873;28;20049;-69
2021/06/25 01:28:18;;;;;;;17.07;15.37;;;12.00;92.10;;;;;;5049875;28;20049;-68
2021/06/25 01:30:45;;;;;;;16.77;15.07;;;12.00;92.20;;;;;;5050762;28;20128;-68
2021/06/25 01:33:14;;;;;;;18.53;16.43;;;12.00;92.30;;;;;;5050620;28;20090;-69
2021/06/25 01:35:40;;;;;;;17.43;15.63;;;11.90;92.40;;;;;;5050103;28;20045;-68
2021/06/25 01:38:07;;;;;;;18.67;16.80;;;11.90;92.50;;;;;;5050551;28;20052;-68
2021/06/25 01:40:33;;;;;;;19.13;16.40;;;11.90;92.60;;;;;;5050680;28;20045;-68
2021/06/25 01:43:02;;;;;;;16.50;14.70;;;11.90;92.70;;;;;;5049442;28;20057;-69
2021/06/25 01:45:31;;;;;;;18.83;16.93;;;11.90;92.60;;;;;;5050463;28;20520;-68
2021/06/25 01:47:58;;;;;;;17.83;15.90;;;11.90;92.60;;;;;;5050019;28;20049;-69
2021/06/25 01:50:27;;;;;;;19.10;16.83;;;12.00;92.60;;;;;;5050482;28;20152;-69
2021/06/25 01:52:57;;;;;;;22.53;20.03;;;12.00;92.60;;;;;;5050416;28;20119;-69
2021/06/25 01:55:25;;;;;;;20.83;18.73;;;12.00;92.60;;;;;;5049969;28;20053;-69
2021/06/25 01:57:51;;;;;;;21.03;17.07;;;12.00;92.70;;;;;;5050484;28;20501;-68
2021/06/25 02:00:18;;;;;;;17.57;15.87;;;12.00;92.70;;;;;;5050189;28;20059;-68
2021/06/25 02:02:44;;;;;;;20.77;17.30;;;12.10;92.70;;;;;;5049696;28;20063;-69
2021/06/25 02:05:12;;;;;;;18.83;17.00;;;12.10;92.70;;;;;;5050110;28;20139;-69
2021/06/25 02:07:38;;;;;;;17.10;15.40;;;12.10;92.60;;;;;;5050681;28;20044;-68
2021/06/25 02:10:06;;;;;;;19.57;17.60;;;12.10;92.60;;;;;;5051717;28;20053;-68
2021/06/25 02:12:31;;;;;;;19.17;17.23;;;12.10;92.60;;;;;;5054750;28;20049;-68
2021/06/25 02:14:58;;;;;;;19.30;16.50;;;12.00;92.60;;;;;;5054248;28;20136;-69
2021/06/25 02:17:23;;;;;;;17.00;15.23;;;12.00;92.70;;;;;;5053722;28;20128;-68
2021/06/25 02:19:49;;;;;;;19.77;17.87;;;12.00;92.60;;;;;;5036512;28;20139;-68
2021/06/25 02:22:15;;;;;;;18.07;16.13;;;12.00;92.70;;;;;;5054157;28;20045;-68
2021/06/25 02:24:41;;;;;;;19.47;17.43;;;11.90;92.70;;;;;;5053406;28;20482;-69
2021/06/25 02:27:08;;;;;;;20.27;18.23;;;11.90;92.70;;;;;;5054151;28;20049;-69
2021/06/25 02:29:34;;;;;;;22.77;18.57;;;11.90;92.80;;;;;;5054056;28;20113;-68
2021/06/25 02:32:00;;;;;;;18.30;16.43;;;11.90;92.90;;;;;;5053154;28;20136;-69
2021/06/25 02:34:25;;;;;;;19.50;17.47;;;11.90;92.90;;;;;;5054146;28;20074;-68
2021/06/25 02:36:51;;;;;;;20.33;18.33;;;11.90;92.90;;;;;;5054358;28;20132;-69
2021/06/25 02:39:19;;;;;;;21.03;17.37;;;11.90;92.90;;;;;;5053157;28;20489;-69
2021/06/25 02:41:45;;;;;;;17.63;15.83;;;11.90;92.90;;;;;;5054111;28;20075;-69
2021/06/25 02:44:11;;;;;;;18.50;16.63;;;11.80;92.90;;;;;;5053957;28;20061;-69
2021/06/25 02:46:36;;;;;;;18.70;16.67;;;11.80;92.90;;;;;;5053454;28;20154;-69
2021/06/25 02:49:03;;;;;;;19.73;17.43;;;11.80;93.00;;;;;;5053492;28;20524;-68
2021/06/25 02:51:28;;;;;;;18.63;16.63;;;11.80;93.40;;;;;;5053240;28;20045;-69
2021/06/25 02:53:54;;;;;;;19.77;16.73;;;11.80;93.00;;;;;;5054086;28;20094;-69
2021/06/25 02:56:20;;;;;;;18.30;16.33;;;11.80;93.00;;;;;;5053542;28;20048;-69
2021/06/25 02:58:45;;;;;;;20.40;18.23;;;11.80;93.00;;;;;;5052915;28;20147;-69
2021/06/25 03:01:11;;;;;;;17.20;15.50;;;11.80;93.00;;;;;;5053432;28;20391;-69
2021/06/25 03:03:37;;;;;;;18.10;16.20;;;11.70;92.90;;;;;;5053786;28;20053;-68
2021/06/25 03:06:03;;;;;;;18.40;16.40;;;11.70;93.00;;;;;;5052830;28;20581;-69
2021/06/25 03:08:29;;;;;;;16.57;14.97;;;11.70;93.00;;;;;;5053867;28;20098;-69
2021/06/25 03:10:54;;;;;;;19.87;17.43;;;11.60;93.10;;;;;;5053642;28;20049;-68
2021/06/25 03:13:21;;;;;;;18.40;15.20;;;11.60;93.20;;;;;;5052737;28;20041;-69
2021/06/25 03:15:48;;;;;;;17.83;15.93;;;11.60;93.20;;;;;;5053651;28;20095;-69
2021/06/25 03:18:15;;;;;;;17.67;15.87;;;11.60;93.20;;;;;;5053252;28;20049;-69
2021/06/25 03:20:41;;;;;;;20.07;17.40;;;11.60;93.20;;;;;;5053161;28;20459;-69
2021/06/25 03:23:08;;;;;;;19.70;17.60;;;11.60;93.20;;;;;;5053636;28;20045;-69
2021/06/25 03:25:34;;;;;;;19.80;16.53;;;11.60;93.20;;;;;;5053749;28;20064;-69
2021/06/25 03:28:01;;;;;;;19.47;17.20;;;11.50;93.20;;;;;;5052546;28;20059;-69
2021/06/25 03:30:29;;;;;;;16.87;15.27;;;11.50;93.30;;;;;;5035502;28;20142;-69
2021/06/25 03:32:54;;;;;;;18.43;16.60;;;11.50;93.30;;;;;;5053444;28;20409;-69
2021/06/25 03:35:20;;;;;;;18.13;16.10;;;11.50;93.20;;;;;;5052501;28;20045;-69
2021/06/25 03:37:46;;;;;;;17.13;15.33;;;11.50;93.20;;;;;;5053453;28;20045;-69
2021/06/25 03:40:13;;;;;;;16.93;15.13;;;11.50;93.20;;;;;;5053077;28;20464;-69
2021/06/25 03:42:39;;;;;;;18.83;16.83;;;11.40;93.20;;;;;;5052296;28;20457;-69
2021/06/25 03:45:06;;;;;;;17.37;15.53;;;11.40;93.20;;;;;;5052878;28;20076;-70
2021/06/25 03:47:33;;;;;;;20.87;16.63;;;11.40;93.30;;;;;;5052473;28;20509;-69
2021/06/25 03:49:59;;;;;;;15.33;13.30;;;11.40;93.30;;;;;;5052978;28;20414;-69
2021/06/25 03:52:25;;;;;;;16.37;14.77;;;11.40;93.40;;;;;;5053394;28;20051;-69
2021/06/25 03:54:50;;;;;;;17.13;15.47;;;11.40;93.30;;;;;;5052170;28;20063;-69
2021/06/25 03:57:16;;;;;;;17.57;15.77;;;11.40;93.30;;;;;;5052524;28;20045;-69
2021/06/25 03:59:41;;;;;;;17.07;15.33;;;11.40;93.30;;;;;;5052897;28;20124;-69
2021/06/25 04:02:09;;;;;;;15.10;13.70;;;11.40;93.30;;;;;;5051768;28;20040;-69
2021/06/25 04:04:36;;;;;;;18.20;16.30;;;11.40;93.30;;;;;;5052908;28;20053;-69
2021/06/25 04:07:03;;;;;;;17.93;16.13;;;11.30;93.40;;;;;;5052728;28;20053;-69
2021/06/25 04:09:29;;;;;;;18.17;16.40;;;11.40;93.50;;;;;;5051991;28;20505;-68
2021/06/25 04:11:55;;;;;;;16.27;14.57;;;11.40;93.50;;;;;;5034992;28;20045;-68
2021/06/25 04:14:21;;;;;;;16.37;14.73;;;11.50;93.50;;;;;;5052468;28;20627;-68
2021/06/25 04:16:46;;;;;;;16.93;15.23;;;11.50;93.40;;;;;;5052160;28;20110;-69
2021/06/25 04:19:12;;;;;;;16.43;14.73;;;11.50;93.40;;;;;;5052722;28;20406;-68
2021/06/25 04:21:38;;;;;;;16.53;14.90;;;11.50;93.40;;;;;;5052589;28;20068;-68
2021/06/25 04:24:04;;;;;;;16.43;14.43;;;11.50;93.50;;;;;;5051835;28;20048;-69
2021/06/25 04:26:30;;;;;;;17.17;15.37;;;11.50;93.50;;;;;;5052519;28;20175;-69
2021/06/25 04:28:56;;;;;;;14.00;12.60;;;11.50;93.50;;;;;;5052242;28;20057;-69
2021/06/25 04:31:22;;;;;;;16.10;14.40;;;11.50;93.70;;;;;;5051490;28;20052;-69
2021/06/25 04:33:47;;;;;;;16.27;14.70;;;11.50;93.90;;;;;;5051960;28;20041;-69
2021/06/25 04:36:13;;;;;;;17.97;14.07;;;11.60;93.80;;;;;;5052219;28;20063;-69
2021/06/25 04:38:39;;;;;;;15.50;14.00;;;11.60;93.70;;;;;;5051641;28;20076;-68
2021/06/25 04:41:05;;;;;;;15.83;14.33;;;11.70;93.70;;;;;;5051862;28;20073;-69
2021/06/25 04:43:30;;;;;;;16.70;15.10;;;11.80;94.00;;;;;;5052140;28;20128;-69
2021/06/25 04:45:58;;;;;;;16.67;14.90;;;12.00;94.20;;;;;;5051396;28;20106;-69
2021/06/25 04:48:24;;;;;;;14.27;12.90;;;12.20;93.80;;;;;;5052447;28;20068;-69
2021/06/25 04:50:50;;;;;;;15.80;14.20;;;12.20;93.50;;;;;;5051554;28;20099;-69
2021/06/25 04:53:16;;;;;;;15.40;13.83;;;12.20;93.40;;;;;;5051823;28;20049;-68
2021/06/25 04:55:42;;;;;;;14.87;13.37;;;12.20;93.30;;;;;;5052060;28;20071;-69
2021/06/25 04:58:09;;;;;;;17.80;15.63;;;12.20;93.40;;;;;;5050903;28;20085;-69
2021/06/25 05:00:35;;;;;;;18.27;16.47;;;12.10;93.60;;;;;;5051777;28;20102;-69
2021/06/25 05:03:01;;;;;;;17.73;15.93;;;12.20;94.10;;;;;;5051592;28;20057;-69
2021/06/25 05:05:29;;;;;;;16.73;15.03;;;12.20;93.60;;;;;;5051056;28;20051;-69
2021/06/25 05:07:57;;;;;;;17.53;15.87;;;12.30;93.60;;;;;;5051445;28;20059;-69
2021/06/25 05:10:23;;;;;;;17.80;15.90;;;12.30;93.50;;;;;;5051534;28;20057;-69
2021/06/25 05:12:48;;;;;;;16.57;15.00;;;12.30;93.50;;;;;;5050614;28;20060;-69
2021/06/25 05:15:15;;;;;;;17.63;15.87;;;12.30;94.00;;;;;;5051393;28;20120;-69
2021/06/25 05:17:40;;;;;;;18.90;17.10;;;12.30;93.70;;;;;;5051428;28;20112;-69
2021/06/25 05:20:06;;;;;;;18.60;16.70;;;12.40;93.80;;;;;;5050377;28;20498;-69
2021/06/25 05:22:32;;;;;;;20.17;18.07;;;12.50;93.60;;;;;;5051626;28;20049;-69
2021/06/25 05:24:58;;;;;;;20.27;18.27;;;12.50;93.50;;;;;;5050915;28;20501;-69
2021/06/25 05:27:24;;;;;;;20.10;18.03;;;12.60;93.50;;;;;;5050319;28;20144;-69
2021/06/25 05:29:50;;;;;;;21.03;18.97;;;12.70;93.50;;;;;;5051298;28;20049;-69
2021/06/25 05:32:15;;;;;;;21.07;19.07;;;12.80;93.50;;;;;;5050936;28;20398;-69
2021/06/25 05:34:41;;;;;;;20.13;18.03;;;12.90;93.60;;;;;;5050435;28;20076;-69
2021/06/25 05:37:07;;;;;;;19.17;17.30;;;13.00;93.40;;;;;;5050688;28;20079;-69
2021/06/25 05:39:32;;;;;;;17.93;16.13;;;13.10;93.30;;;;;;5050832;28;20053;-69
2021/06/25 05:41:58;;;;;;;21.83;17.67;;;13.10;93.20;;;;;;5049632;28;20059;-70
2021/06/25 05:44:23;;;;;;;18.17;16.37;;;13.30;93.20;;;;;;5050301;28;20049;-69
2021/06/25 05:46:49;;;;;;;18.77;16.87;;;13.40;93.00;;;;;;5051195;28;20475;-69
2021/06/25 05:49:15;;;;;;;18.03;16.23;;;13.50;92.90;;;;;;5049769;28;20139;-69
2021/06/25 05:51:42;;;;;;;17.17;15.37;;;13.60;92.70;;;;;;5050905;28;20075;-69
2021/06/25 05:54:07;;;;;;;18.43;16.47;;;13.70;92.70;;;;;;5050136;28;20048;-69
2021/06/25 05:56:33;;;;;;;17.63;15.73;;;13.70;92.60;;;;;;5050589;28;20053;-69
2021/06/25 05:58:58;;;;;;;18.67;16.87;;;13.80;92.60;;;;;;5050685;28;20053;-70
2021/06/25 06:01:29;;;;;;;18.73;17.00;;;13.90;92.60;;;;;;5050212;28;20118;-70
2021/06/25 06:03:55;;;;;;;18.60;16.87;;;14.00;92.60;;;;;;5050942;28;20049;-69
2021/06/25 06:06:20;;;;;;;18.93;17.03;;;14.10;92.30;;;;;;5050600;28;20303;-69
2021/06/25 06:08:46;;;;;;;19.47;17.57;;;14.20;92.20;;;;;;5049781;28;20501;-69
2021/06/25 06:11:12;;;;;;;18.63;16.97;;;14.20;92.20;;;;;;5050508;28;20052;-70
2021/06/25 06:13:37;;;;;;;17.43;15.63;;;14.30;92.20;;;;;;5051055;28;20131;-69
2021/06/25 06:16:03;;;;;;;19.20;17.43;;;14.30;92.10;;;;;;5049783;28;20041;-69
2021/06/25 06:18:34;;;;;;;19.73;17.67;;;14.40;92.10;;;;;;5050780;28;20461;-69
2021/06/25 06:21:00;;;;;;;19.90;17.88;;;14.40;92.00;;;;;;5050408;28;20083;-70
2021/06/25 06:32:18;;;;;;;17.10;15.40;;;14.50;92.10;;;;;;4969320;28;20054;-70
2021/06/25 06:34:45;;;;;;;19.10;17.40;;;14.50;92.00;;;;;;4969934;28;20559;-69
2021/06/25 06:37:18;;;;;;;20.30;18.30;;;14.60;92.00;;;;;;5017570;28;20180;-70
2021/06/25 06:39:44;;;;;;;18.50;16.70;;;14.70;92.00;;;;;;5050566;28;20055;-69
2021/06/25 06:42:10;;;;;;;17.63;15.93;;;14.70;91.80;;;;;;5050163;28;20048;-69
2021/06/25 06:44:36;;;;;;;18.00;16.30;;;14.80;91.60;;;;;;5049785;28;20060;-68
2021/06/25 06:47:01;;;;;;;17.57;15.80;;;14.90;91.40;;;;;;5050412;28;20049;-69
2021/06/25 06:49:27;;;;;;;18.40;16.57;;;14.90;91.20;;;;;;5050710;28;20355;-69
2021/06/25 06:51:53;;;;;;;17.23;15.70;;;15.00;90.90;;;;;;5049814;28;20076;-69
2021/06/25 06:54:22;;;;;;;17.03;14.93;;;15.20;90.90;;;;;;5050289;28;20485;-69
2021/06/25 06:56:48;;;;;;;15.97;14.37;;;15.30;90.90;;;;;;5053688;28;20440;-68
2021/06/25 06:59:13;;;;;;;16.27;13.87;;;15.40;90.60;;;;;;5053284;28;20087;-68
2021/06/25 07:01:39;;;;;;;16.13;13.57;;;15.50;90.50;;;;;;5053940;28;20069;-69
2021/06/25 07:04:05;;;;;;;16.03;14.47;;;15.70;90.40;;;;;;5053236;28;20049;-68
2021/06/25 07:06:31;;;;;;;15.80;14.20;;;15.80;90.10;;;;;;5051603;28;20386;-69
2021/06/25 07:08:57;;;;;;;15.17;13.63;;;15.90;89.50;;;;;;5052393;28;20048;-68
2021/06/25 07:11:23;;;;;;;13.90;12.63;;;15.90;88.80;;;;;;5052380;28;20230;-68
2021/06/25 07:13:48;;;;;;;13.03;11.80;;;16.00;88.20;;;;;;5052373;28;20067;-68
2021/06/25 07:16:17;;;;;;;13.07;11.67;;;16.00;87.20;;;;;;5052384;28;20053;-68
2021/06/25 07:18:42;;;;;;;14.17;12.03;;;16.00;86.10;;;;;;5052013;28;20037;-68
2021/06/25 07:21:08;;;;;;;15.23;13.70;;;16.00;85.20;;;;;;5049666;28;20056;-68
2021/06/25 07:23:34;;;;;;;13.90;12.57;;;16.00;85.20;;;;;;5053010;28;20041;-68
2021/06/25 07:26:00;;;;;;;12.63;11.37;;;16.00;85.20;;;;;;5052021;28;20315;-69
2021/06/25 07:28:25;;;;;;;15.67;13.20;;;16.10;85.40;;;;;;5053051;28;20048;-69
2021/06/25 07:30:51;;;;;;;16.20;13.57;;;16.10;84.70;;;;;;5053107;28;20053;-68
2021/06/25 07:33:17;;;;;;;16.70;13.27;;;16.10;84.80;;;;;;5052407;28;20052;-68
2021/06/25 07:35:42;;;;;;;14.23;12.77;;;16.10;85.10;;;;;;5052512;28;20457;-68
2021/06/25 07:38:08;;;;;;;14.60;12.93;;;16.10;84.30;;;;;;5052960;28;20274;-68
2021/06/25 07:40:34;;;;;;;14.90;13.17;;;16.20;83.50;;;;;;5051776;28;20060;-68
2021/06/25 07:43:00;;;;;;;13.83;11.77;;;16.20;83.20;;;;;;5052543;28;20056;-68
2021/06/25 07:45:26;;;;;;;12.77;11.43;;;16.30;83.10;;;;;;5052696;28;20132;-69
2021/06/25 07:47:51;;;;;;;11.30;10.20;;;16.30;83.00;;;;;;5052365;28;20053;-69
2021/06/25 07:50:19;;;;;;;15.90;13.40;;;16.40;82.20;;;;;;5052532;28;20521;-68
2021/06/25 07:52:45;;;;;;;13.63;12.33;;;16.50;82.10;;;;;;5052848;28;20098;-68
2021/06/25 07:55:30;;;;;;;12.87;11.63;;;16.60;82.10;;;;;;5036856;28;20049;-69
2021/06/25 07:57:56;;;;;;;12.83;11.53;;;16.70;81.90;;;;;;5052770;28;20064;-70
2021/06/25 08:00:22;;;;;;;12.33;11.13;;;16.80;81.60;;;;;;5052327;28;20049;-69
2021/06/25 08:02:47;;;;;;;13.07;11.77;;;16.90;81.50;;;;;;5051146;28;20513;-69
2021/06/25 08:05:13;;;;;;;13.40;12.10;;;17.10;81.70;;;;;;5051805;28;20148;-69
2021/06/25 08:07:40;;;;;;;13.77;12.47;;;17.20;81.10;;;;;;5051362;28;20076;-69
2021/06/25 08:10:06;;;;;;;11.47;10.40;;;17.30;80.20;;;;;;5050864;28;20549;-69
2021/06/25 08:12:33;;;;;;;8.70;7.67;;;17.40;79.00;;;;;;5052274;28;20065;-69
2021/06/25 08:14:59;;;;;;;9.53;7.63;;;17.40;77.30;;;;;;5050962;28;20087;-69
2021/06/25 08:17:25;;;;;;;8.07;6.90;;;17.40;76.30;;;;;;5052376;28;20066;-69
2021/06/25 08:19:52;;;;;;;8.17;7.30;;;17.40;75.20;;;;;;5052123;28;20052;-69
2021/06/25 08:22:18;;;;;;;9.73;8.30;;;17.40;74.30;;;;;;5051002;28;20090;-70
2021/06/25 08:24:44;;;;;;;8.20;6.40;;;17.50;73.70;;;;;;5052422;28;20049;-69
2021/06/25 08:27:09;;;;;;;9.67;6.53;;;17.50;72.90;;;;;;5052170;28;20102;-69
2021/06/25 08:29:35;;;;;;;10.07;7.60;;;17.60;73.30;;;;;;5051411;28;20356;-69
2021/06/25 08:32:01;;;;;;;10.37;8.77;;;17.70;73.60;;;;;;5051684;28;20471;-70
2021/06/25 08:34:26;;;;;;;9.50;8.53;;;17.80;73.00;;;;;;5052463;28;20549;-70
2021/06/25 08:36:52;;;;;;;10.10;7.23;;;17.90;72.60;;;;;;5051221;28;20086;-70
2021/06/25 08:39:18;;;;;;;7.10;5.83;;;17.90;71.70;;;;;;5051770;28;20131;-69
2021/06/25 08:41:44;;;;;;;8.33;6.67;;;17.90;70.40;;;;;;5051833;28;20049;-70
2021/06/25 08:44:10;;;;;;;9.53;7.87;;;17.90;69.90;;;;;;5050723;28;20052;-68
2021/06/25 08:46:36;;;;;;;9.17;7.03;;;17.90;69.70;;;;;;5051872;28;20068;-68
2021/06/25 08:49:04;;;;;;;8.67;7.80;;;18.00;69.80;;;;;;5051401;28;20095;-69
2021/06/25 08:51:32;;;;;;;9.93;7.63;;;18.10;69.90;;;;;;5051044;28;20049;-69
2021/06/25 08:53:58;;;;;;;10.07;9.17;;;18.20;70.10;;;;;;5051725;28;20048;-69
2021/06/25 08:56:24;;;;;;;9.67;8.23;;;18.20;70.80;;;;;;5052068;28;20083;-69
2021/06/25 08:58:50;;;;;;;9.13;7.27;;;18.30;70.20;;;;;;5051169;28;20044;-69
2021/06/25 09:01:17;;;;;;;8.20;6.37;;;18.40;69.50;;;;;;5051295;28;20059;-69
2021/06/25 09:03:51;;;;;;;6.93;5.87;;;18.60;68.60;;;;;;5051046;28;20044;-69
2021/06/25 09:06:17;;;;;;;6.23;5.63;;;18.70;68.10;;;;;;5050412;28;20467;-70
2021/06/25 09:08:42;;;;;;;7.40;6.70;;;18.90;67.70;;;;;;5051295;28;20132;-70
2021/06/25 09:11:25;;;;;;;9.37;6.33;;;19.00;66.40;;;;;;5049950;28;20056;-70
2021/06/25 09:14:03;;;;;;;6.73;5.13;;;19.20;64.80;;;;;;5048648;28;20045;-70
2021/06/25 09:16:36;;;;;;;11.33;7.63;;;19.30;65.20;;;;;;5050614;28;20086;-68
2021/06/25 09:19:02;;;;;;;8.90;7.47;;;19.40;64.50;;;;;;5049845;28;20095;-69
2021/06/25 09:21:30;;;;;;;9.17;8.20;;;19.40;64.60;;;;;;5050731;28;20452;-70
2021/06/25 09:23:56;;;;;;;10.57;7.27;;;19.40;64.20;;;;;;5050756;28;20127;-69
2021/06/25 09:26:29;;;;;;;7.30;6.60;;;19.30;63.70;;;;;;5048936;28;20128;-69
2021/06/25 09:29:23;;;;;;;12.20;9.83;;;19.30;63.70;;;;;;5050455;28;20442;-69
2021/06/25 09:32:03;;;;;;;11.90;8.97;;;19.10;62.00;;;;;;5049074;28;20113;-69
2021/06/25 09:34:50;;;;;;;10.15;8.50;;;19.00;63.30;;;;;;5050157;28;20128;-68
2021/06/25 09:37:17;;;;;;;12.00;8.73;;;18.90;63.90;;;;;;5050963;28;20059;-68
2021/06/25 09:40:00;;;;;;;10.70;8.37;;;18.80;63.80;;;;;;5049010;28;20060;-70
2021/06/25 09:42:27;;;;;;;9.50;8.10;;;18.80;62.70;;;;;;5048521;28;20096;-69
2021/06/25 09:45:25;;;;;;;9.67;7.90;;;18.70;63.90;;;;;;5049504;28;20083;-70
2021/06/25 09:47:54;;;;;;;9.53;8.13;;;18.70;62.70;;;;;;5004063;28;20501;-69
2021/06/25 09:50:22;;;;;;;8.33;7.20;;;18.60;63.10;;;;;;5049220;28;20044;-69
2021/06/25 09:52:51;;;;;;;8.17;6.87;;;18.50;62.40;;;;;;5049788;28;20144;-68
2021/06/25 09:55:23;;;;;;;9.43;6.10;;;18.40;62.40;;;;;;5045789;28;20618;-69
2021/06/25 10:03:39;;;;;;;7.57;6.10;;;18.30;63.40;;;;;;5047053;28;20116;-69
2021/06/25 10:06:07;;;;;;;9.93;6.87;;;18.30;63.90;;;;;;5048961;28;20052;-69
2021/06/25 10:08:33;;;;;;;7.33;5.83;;;18.30;63.40;;;;;;5049559;28;20044;-69
2021/06/25 10:11:00;;;;;;;7.37;6.00;;;18.40;62.80;;;;;;5050259;28;20102;-69
2021/06/25 10:13:26;;;;;;;8.70;6.50;;;18.40;62.20;;;;;;5050787;28;20069;-67
2021/06/25 10:15:52;;;;;;;9.30;7.27;;;18.50;61.40;;;;;;5050297;28;20517;-68
2021/06/25 10:18:18;;;;;;;10.17;7.23;;;18.50;61.00;;;;;;5050675;28;20187;-68
2021/06/25 10:20:45;;;;;;;8.03;6.30;;;18.60;60.90;;;;;;5032514;28;20083;-68
2021/06/25 10:23:12;;;;;;;8.57;6.70;;;18.60;60.50;;;;;;5049557;28;20057;-68
2021/06/25 10:25:40;;;;;;;8.50;5.93;;;18.60;60.50;;;;;;5050630;28;20049;-69
2021/06/25 10:28:06;;;;;;;7.83;6.30;;;18.70;60.50;;;;;;5050487;28;20079;-68
2021/06/25 10:30:32;;;;;;;7.60;6.50;;;18.70;61.30;;;;;;5051149;28;20478;-68
2021/06/25 10:32:58;;;;;;;7.93;7.13;;;18.70;61.10;;;;;;5054472;28;20463;-69
2021/06/25 10:35:24;;;;;;;8.87;6.23;;;18.80;61.80;;;;;;5053916;28;20136;-68
2021/06/25 10:37:50;;;;;;;9.67;6.17;;;18.90;61.30;;;;;;5053851;28;20131;-68
2021/06/25 10:40:27;;;;;;;7.83;6.00;;;18.90;61.40;;;;;;5054206;28;20147;-68
2021/06/25 10:42:54;;;;;;;10.10;6.43;;;19.00;62.70;;;;;;5053481;28;20084;-68
2021/06/25 10:45:38;;;;;;;9.00;6.80;;;19.00;61.80;;;;;;5053957;28;20076;-68
2021/06/25 10:48:04;;;;;;;8.63;6.50;;;19.10;60.30;;;;;;5053956;28;20478;-69
2021/06/25 10:50:30;;;;;;;8.40;6.33;;;19.30;60.60;;;;;;5053583;28;20106;-69
2021/06/25 10:53:25;;;;;;;8.03;6.23;;;19.40;60.40;;;;;;5054331;28;20361;-68
2021/06/25 10:55:59;;;;;;;9.13;6.43;;;19.50;60.30;;;;;;5053562;28;20053;-68
2021/06/25 10:58:26;;;;;;;10.30;6.93;;;19.60;60.40;;;;;;5053147;28;20049;-69
2021/06/25 11:01:00;;;;;;;10.37;8.43;;;19.60;60.00;;;;;;5053836;28;20041;-69
2021/06/25 11:03:37;;;;;;;9.77;8.60;;;19.60;59.40;;;;;;5054236;28;20124;-69
2021/06/25 11:06:05;;;;;;;10.97;8.53;;;19.70;59.50;;;;;;5053791;28;20045;-69
2021/06/25 11:08:31;;;;;;;8.90;7.37;;;19.70;59.80;;;;;;5053892;28;20115;-68
2021/06/25 11:10:58;;;;;;;8.87;7.93;;;19.70;59.90;;;;;;5052954;28;20364;-68
2021/06/25 11:13:31;;;;;;;9.40;7.47;;;19.70;60.00;;;;;;5053437;28;20512;-68
2021/06/25 11:16:03;;;;;;;10.33;8.10;;;19.70;60.10;;;;;;5053588;28;20425;-68
2021/06/25 11:18:29;;;;;;;;;;;19.80;60.50;;;;;;5053780;28;20099;-70
2021/06/25 11:21:09;;;;;;;10.87;8.70;;;19.80;61.10;;;;;;5054094;28;19927;-70
2021/06/25 11:23:37;;;;;;;11.13;9.13;;;19.90;60.60;;;;;;5053546;28;20059;-70
2021/06/25 11:26:05;;;;;;;9.77;8.77;;;20.00;60.20;;;;;;5052712;28;20053;-70
2021/06/25 11:28:31;;;;;;;10.43;9.10;;;20.00;60.00;;;;;;5053635;28;20045;-70
2021/06/25 11:31:05;;;;;;;11.27;8.50;;;19.90;59.70;;;;;;5053592;28;20037;-69
2021/06/25 11:33:36;;;;;;;12.37;8.90;;;19.90;59.60;;;;;;5052622;28;20055;-70
2021/06/25 11:36:14;;;;;;;11.15;8.13;;;20.00;60.00;;;;;;5052938;28;20060;-70
2021/06/25 11:38:55;;;;;;;10.07;9.07;;;20.00;59.70;;;;;;5053386;28;20057;-70
2021/06/25 11:41:22;;;;;;;10.60;8.50;;;20.10;59.70;;;;;;5052704;28;20053;-68
2021/06/25 11:43:49;;;;;;;10.50;8.13;;;20.20;59.60;;;;;;5052798;28;20664;-68
2021/06/25 11:46:18;;;;;;;11.30;8.77;;;20.30;59.90;;;;;;5052234;28;20049;-68
2021/06/25 11:48:46;;;;;;;14.47;11.07;;;20.40;60.40;;;;;;5052951;28;20068;-68
2021/06/25 11:51:14;;;;;;;11.27;10.17;;;20.60;60.10;;;;;;5052577;28;20097;-68
2021/06/25 11:53:47;;;;;;;12.20;10.97;;;20.80;59.60;;;;;;5051935;28;20406;-68
2021/06/25 11:56:21;;;;;;;12.63;9.70;;;21.00;58.70;;;;;;5052718;28;20440;-69
2021/06/25 11:59:14;;;;;;;11.03;9.83;;;21.20;58.50;;;;;;5053017;28;20049;-69
2021/06/25 12:02:01;;;;;;;11.13;9.73;;;21.40;58.00;;;;;;5049045;28;20052;-69
2021/06/25 12:04:44;;;;;;;11.90;9.80;;;21.40;58.50;;;;;;5052723;28;20141;-69
2021/06/25 12:07:12;;;;;;;13.20;10.70;;;21.50;58.40;;;;;;5051710;28;20041;-69
2021/06/25 12:09:50;;;;;;;13.80;11.97;;;21.50;58.70;;;;;;5052459;28;20053;-68
2021/06/25 12:12:25;;;;;;;13.07;11.23;;;21.50;58.10;;;;;;5052341;28;20063;-69
2021/06/25 12:15:02;;;;;;;16.43;12.07;;;21.50;58.20;;;;;;5052037;28;20045;-69
2021/06/25 12:17:48;;;;;;;17.17;13.60;;;21.50;59.00;;;;;;5052396;28;20354;-70
2021/06/25 12:20:17;;;;;;;15.27;13.10;;;21.40;58.60;;;;;;5051827;28;20462;-68
2021/06/25 12:23:03;;;;;;;21.50;14.70;;;21.40;58.70;;;;;;5051847;28;20045;-68
2021/06/25 12:25:31;;;;;;;17.97;16.23;;;21.30;58.00;;;;;;5052431;28;20109;-68
2021/06/25 12:27:57;;;;;;;19.33;17.27;;;21.10;59.40;;;;;;5052250;28;20044;-69
2021/06/25 12:30:24;;;;;;;18.87;16.67;;;21.10;59.70;;;;;;5051655;28;20739;-69
2021/06/25 12:33:01;;;;;;;19.83;17.80;;;20.90;59.30;;;;;;5052555;28;20091;-69
2021/06/25 12:35:32;;;;;;;20.43;18.23;;;20.90;58.90;;;;;;5051875;28;20150;-68
2021/06/25 12:37:57;;;;;;;18.52;16.60;;;20.80;59.60;;;;;;5052016;28;20052;-68
2021/06/25 12:40:46;;;;;;;20.20;18.20;;;20.70;60.10;;;;;;5052064;28;20409;-68
2021/06/25 12:43:16;;;;;;;20.43;18.33;;;20.70;59.50;;;;;;5051076;28;20084;-68
2021/06/25 12:45:43;;;;;;;20.33;18.07;;;20.50;59.80;;;;;;5052355;28;20041;-68
2021/06/25 12:48:18;;;;;;;20.40;16.57;;;20.50;60.40;;;;;;5051918;28;20051;-68